Time;durP1;ratioP1;P1;durP2;ratioP2;P2;SDS_P1;SDS_P2;PMS_P1;PMS_P2;Temp;Humidity;BMP_temperature;BMP_pressure;BME280_temperature;BME280_humidity;BME280_pressure;Samples;Min_cycle;Max_cycle;Signal;HPM_P1;HPM_P2
2023/04/11 00:00:39;;;;;;;;;;;17.80;64.40;;;;;;10375892;28;89287;-68
2023/04/11 00:05:41;;;;;;;;;;;17.80;64.30;;;;;;10375193;28;88997;-68
2023/04/11 00:10:43;;;;;;;;;;;17.80;64.40;;;;;;10383092;28;89239;-68
2023/04/11 00:15:46;;;;;;;;;;;17.70;64.30;;;;;;10382239;28;88242;-68
2023/04/11 00:20:48;;;;;;;;;;;17.70;64.30;;;;;;10381721;28;89190;-68
2023/04/11 00:25:50;;;;;;;;;;;17.70;64.30;;;;;;10382555;28;88270;-68
2023/04/11 00:30:51;;;;;;;;;;;17.70;64.30;;;;;;10382124;28;89000;-68
2023/04/11 00:35:53;;;;;;;;;;;17.70;64.30;;;;;;10382364;28;87380;-68
2023/04/11 00:40:55;;;;;;;;;;;17.70;64.30;;;;;;10382700;28;88591;-68
2023/04/11 00:45:56;;;;;;;;;;;17.70;64.20;;;;;;10382518;28;89016;-67
2023/04/11 00:50:58;;;;;;;;;;;17.70;64.20;;;;;;10382056;28;89229;-68
2023/04/11 00:56:00;;;;;;;;;;;17.70;64.10;;;;;;10382263;28;88492;-68
2023/04/11 01:01:07;;;;;;;;;;;17.60;64.00;;;;;;10381407;28;87557;-68
2023/04/11 01:06:11;;;;;;;;;;;17.60;64.00;;;;;;10381581;28;88479;-68
2023/04/11 01:11:16;;;;;;;;;;;17.60;64.00;;;;;;10380830;28;88902;-69
2023/04/11 01:16:20;;;;;;;;;;;17.60;63.90;;;;;;10379132;28;88362;-68
2023/04/11 01:21:23;;;;;;;;;;;17.60;64.00;;;;;;10380292;28;89241;-68
2023/04/11 01:26:25;;;;;;;;;;;17.60;63.90;;;;;;10395939;28;89495;-68
2023/04/11 01:31:26;;;;;;;;;;;17.60;64.00;;;;;;10380961;28;87842;-68
2023/04/11 01:36:30;;;;;;;;;;;17.60;63.90;;;;;;10379095;28;88441;-68
2023/04/11 01:41:32;;;;;;;;;;;17.50;63.90;;;;;;10379498;28;88057;-69
2023/04/11 01:46:34;;;;;;;;;;;17.50;63.90;;;;;;10377331;28;88274;-69
2023/04/11 01:51:36;;;;;;;;;;;17.50;63.90;;;;;;10379469;28;88357;-68
2023/04/11 01:56:38;;;;;;;;;;;17.50;63.80;;;;;;10377859;28;88217;-68
2023/04/11 02:01:41;;;;;;;;;;;17.50;63.80;;;;;;10378895;28;88132;-68
2023/04/11 02:06:43;;;;;;;;;;;17.50;63.80;;;;;;10379737;28;87977;-68
2023/04/11 02:11:45;;;;;;;;;;;17.50;63.70;;;;;;10378288;28;89378;-68
2023/04/11 02:16:53;;;;;;;;;;;17.50;63.60;;;;;;10379197;28;89232;-68
2023/04/11 02:21:55;;;;;;;;;;;17.50;63.60;;;;;;10376571;28;88943;-68
2023/04/11 02:26:58;;;;;;;;;;;17.50;63.40;;;;;;10377297;28;87720;-68
2023/04/11 02:32:00;;;;;;;;;;;17.50;63.30;;;;;;10377378;28;88488;-68
2023/04/11 02:37:02;;;;;;;;;;;17.50;63.30;;;;;;10376713;28;89174;-68
2023/04/11 02:42:04;;;;;;;;;;;17.50;63.20;;;;;;10377888;28;87886;-68
2023/04/11 02:47:05;;;;;;;;;;;17.50;63.20;;;;;;10377388;28;89465;-68
2023/04/11 02:52:07;;;;;;;;;;;17.50;63.20;;;;;;10377634;28;88274;-68
2023/04/11 02:57:09;;;;;;;;;;;17.50;63.30;;;;;;10377130;28;89263;-69
2023/04/11 03:02:10;;;;;;;;;;;17.50;63.20;;;;;;10377546;28;89340;-68
2023/04/11 03:07:12;;;;;;;;;;;17.40;63.00;;;;;;10377368;28;88879;-68
2023/04/11 03:12:14;;;;;;;;;;;17.40;63.00;;;;;;10377576;28;89517;-68
2023/04/11 03:17:16;;;;;;;;;;;17.40;63.00;;;;;;10376057;28;88654;-67
2023/04/11 03:22:18;;;;;;;;;;;17.40;64.00;;;;;;10375756;28;88185;-68
2023/04/11 03:27:20;;;;;;;;;;;17.40;63.00;;;;;;10376322;28;88051;-68
2023/04/11 03:32:21;;;;;;;;;;;17.40;63.00;;;;;;10375964;28;89075;-68
2023/04/11 03:37:23;;;;;;;;;;;17.40;62.90;;;;;;10376295;28;88204;-68
2023/04/11 03:42:25;;;;;;;;;;;17.40;62.80;;;;;;10379409;28;89320;-68
2023/04/11 05:03:37;;;;;;;;;;;17.30;62.30;;;;;;10399074;27;88186;-65
2023/04/11 05:08:39;;;;;;;;;;;17.30;62.40;;;;;;10421142;28;88037;-63
2023/04/11 05:13:41;;;;;;;;;;;17.30;62.80;;;;;;10420040;28;89952;-64
2023/04/11 05:18:42;;;;;;;;;;;17.30;63.80;;;;;;10421005;28;89672;-64
2023/04/11 05:23:44;;;;;;;;;;;17.40;62.70;;;;;;10421414;28;88828;-64
2023/04/11 05:28:46;;;;;;;;;;;17.40;62.80;;;;;;10419872;28;89167;-64
2023/04/11 05:33:48;;;;;;;;;;;17.40;62.80;;;;;;10403305;28;89801;-64
2023/04/11 05:38:49;;;;;;;;;;;17.40;62.80;;;;;;10420315;28;89075;-64
2023/04/11 05:43:51;;;;;;;;;;;17.50;62.90;;;;;;10420650;28;89993;-65
2023/04/11 05:48:53;;;;;;;;;;;17.50;62.90;;;;;;10418250;28;89220;-63
2023/04/11 05:53:55;;;;;;;;;;;17.50;63.50;;;;;;10399781;28;90053;-63
2023/04/11 05:58:57;;;;;;;;;;;17.50;63.90;;;;;;10401011;28;90394;-63
2023/04/11 06:03:59;;;;;;;;;;;17.50;63.40;;;;;;10415688;27;90747;-64
2023/04/11 06:09:01;;;;;;;;;;;17.50;63.20;;;;;;10418675;28;89608;-65
2023/04/11 06:14:03;;;;;;;;;;;17.50;64.30;;;;;;10418275;28;89716;-65
2023/04/11 06:19:04;;;;;;;;;;;17.50;64.90;;;;;;10418714;28;89190;-65
2023/04/11 06:24:08;;;;;;;;;;;17.60;64.70;;;;;;10418333;28;90194;-66
2023/04/11 06:29:09;;;;;;;;;;;17.60;64.10;;;;;;10418750;28;90097;-65
2023/04/11 06:34:11;;;;;;;;;;;17.50;63.50;;;;;;10419127;28;90091;-65
2023/04/11 06:39:13;;;;;;;;;;;17.50;64.30;;;;;;10418954;28;87898;-65
2023/04/11 06:44:14;;;;;;;;;;;17.50;64.60;;;;;;10418290;28;90124;-63
2023/04/11 06:49:17;;;;;;;;;;;17.50;64.10;;;;;;10418188;28;89928;-63
2023/04/11 06:54:19;;;;;;;;;;;17.50;64.00;;;;;;10403579;28;89386;-62
2023/04/11 06:59:21;;;;;;;;;;;17.50;64.00;;;;;;10417787;28;88637;-63
2023/04/11 07:04:25;;;;;;;;;;;17.50;64.10;;;;;;10416965;28;89235;-63
2023/04/11 07:09:27;;;;;;;;;;;17.50;64.00;;;;;;10417281;28;88976;-65
2023/04/11 07:14:29;;;;;;;;;;;17.50;65.60;;;;;;10415890;28;88799;-64
2023/04/11 07:19:30;;;;;;;;;;;17.50;65.50;;;;;;10417606;28;90341;-64
2023/04/11 07:24:32;;;;;;;;;;;17.50;65.20;;;;;;10415660;28;88724;-65
2023/04/11 07:29:34;;;;;;;;;;;17.50;64.70;;;;;;10416622;28;88755;-64
2023/04/11 07:34:37;;;;;;;;;;;17.60;64.60;;;;;;10416242;28;88591;-65
2023/04/11 07:39:39;;;;;;;;;;;17.60;64.40;;;;;;10415373;28;89173;-65
2023/04/11 07:44:41;;;;;;;;;;;17.60;63.50;;;;;;10415775;28;90829;-66
2023/04/11 07:49:43;;;;;;;;;;;17.50;62.10;;;;;;10414960;28;89856;-65
2023/04/11 07:54:45;;;;;;;;;;;17.50;61.70;;;;;;10415448;28;89482;-66
2023/04/11 07:59:46;;;;;;;;;;;17.50;61.60;;;;;;10416354;28;89136;-66
2023/04/11 08:04:48;;;;;;;;;;;17.50;62.40;;;;;;10415604;28;90039;-66
2023/04/11 08:09:50;;;;;;;;;;;17.50;62.50;;;;;;10416085;28;90152;-66
2023/04/11 08:14:52;;;;;;;;;;;17.50;63.10;;;;;;10415954;28;89939;-66
2023/04/11 08:19:54;;;;;;;;;;;17.50;62.80;;;;;;10416578;28;88312;-66
2023/04/11 08:24:56;;;;;;;;;;;17.50;63.30;;;;;;10415086;28;89177;-65
2023/04/11 08:29:58;;;;;;;;;;;17.40;62.10;;;;;;10420677;28;89772;-67
2023/04/11 08:35:00;;;;;;;;;;;17.40;61.10;;;;;;10421296;28;89624;-67
2023/04/11 08:40:05;;;;;;;;;;;17.30;59.70;;;;;;10422105;28;89657;-66
2023/04/11 08:45:09;;;;;;;;;;;17.30;59.20;;;;;;10423031;28;89825;-66
2023/04/11 08:50:10;;;;;;;;;;;17.30;59.40;;;;;;10422075;28;89138;-66
2023/04/11 08:55:12;;;;;;;;;;;17.30;59.50;;;;;;10417970;28;89715;-67
2023/04/11 09:00:17;;;;;;;;;;;17.30;59.40;;;;;;10400098;28;90217;-67
2023/04/11 09:05:25;;;;;;;;;;;17.30;59.40;;;;;;10418591;28;88519;-67
2023/04/11 09:10:27;;;;;;;;;;;17.30;59.20;;;;;;10420975;28;87690;-67
2023/04/11 09:15:30;;;;;;;;;;;17.30;59.00;;;;;;10421125;28;89025;-67
2023/04/11 09:20:32;;;;;;;;;;;17.30;58.50;;;;;;10420698;28;88210;-67
2023/04/11 09:25:42;;;;;;;;;;;17.30;58.60;;;;;;10420021;28;90402;-67
2023/04/11 09:30:49;;;;;;;;;;;17.30;58.50;;;;;;10420770;28;88526;-65
2023/04/11 09:35:52;;;;;;;;;;;17.30;59.30;;;;;;10421125;28;89148;-66
2023/04/11 09:40:55;;;;;;;;;;;17.30;58.20;;;;;;10421166;27;88969;-66
2023/04/11 09:46:06;;;;;;;;;;;17.40;58.20;;;;;;10419300;28;89253;-66
2023/04/11 09:51:08;;;;;;;;;;;17.40;58.10;;;;;;10401025;28;88868;-66
2023/04/11 09:56:11;;;;;;;;;;;17.40;58.00;;;;;;10419481;28;88098;-66
2023/04/11 10:01:14;;;;;;;;;;;17.40;57.80;;;;;;10421162;28;88433;-66
2023/04/11 10:06:21;;;;;;;;;;;17.50;57.80;;;;;;10420569;28;89863;-66
2023/04/11 10:11:23;;;;;;;;;;;17.50;57.60;;;;;;10401871;28;88794;-66
2023/04/11 10:16:27;;;;;;;;;;;17.50;57.60;;;;;;10400371;28;89767;-66
2023/04/11 10:21:29;;;;;;;;;;;17.60;57.40;;;;;;10400825;28;89039;-66
2023/04/11 10:26:50;;;;;;;;;;;17.60;57.20;;;;;;10419909;28;90273;-67
2023/04/11 10:32:11;;;;;;;;;;;17.60;57.00;;;;;;10419298;28;89627;-68
2023/04/11 10:37:13;;;;;;;;;;;17.70;57.10;;;;;;10399822;28;88446;-68
2023/04/11 10:42:30;;;;;;;;;;;17.80;56.90;;;;;;10418270;28;88179;-67
2023/04/11 10:47:32;;;;;;;;;;;17.80;56.70;;;;;;10418088;28;88890;-67
2023/04/11 10:52:37;;;;;;;;;;;17.80;56.50;;;;;;10418580;28;89503;-67
2023/04/11 10:57:58;;;;;;;;;;;17.80;56.50;;;;;;10418367;28;90154;-67
2023/04/11 11:03:00;;;;;;;;;;;17.90;56.60;;;;;;10417718;28;89205;-67
2023/04/11 11:08:02;;;;;;;;;;;17.80;56.40;;;;;;10418179;28;90877;-67
2023/04/11 11:13:04;;;;;;;;;;;17.80;56.30;;;;;;10417669;28;88872;-66
2023/04/11 11:18:07;;;;;;;;;;;17.80;56.30;;;;;;10418608;28;90155;-67
2023/04/11 11:23:10;;;;;;;;;;;17.80;56.20;;;;;;10419526;28;88116;-67
2023/04/11 11:28:12;;;;;;;;;;;17.80;56.10;;;;;;10419391;28;90728;-66
2023/04/11 11:33:16;;;;;;;;;;;17.80;56.20;;;;;;10417839;28;89311;-67
2023/04/11 11:38:18;;;;;;;;;;;17.80;56.30;;;;;;10418234;28;88958;-65
2023/04/11 11:43:20;;;;;;;;;;;17.80;56.20;;;;;;10418338;28;89370;-67
2023/04/11 11:48:23;;;;;;;;;;;17.80;55.90;;;;;;10399318;28;88294;-68
2023/04/11 11:53:25;;;;;;;;;;;17.80;56.00;;;;;;10399112;28;90109;-67
2023/04/11 11:58:27;;;;;;;;;;;17.80;55.90;;;;;;10416067;28;88962;-66
2023/04/11 12:03:29;;;;;;;;;;;17.80;55.90;;;;;;10419116;27;89073;-66
2023/04/11 12:08:32;;;;;;;;;;;17.80;55.80;;;;;;10422684;28;89310;-66
2023/04/11 12:13:34;;;;;;;;;;;17.80;55.90;;;;;;10424187;28;89077;-66
2023/04/11 12:18:39;;;;;;;;;;;17.80;55.90;;;;;;10423144;28;89067;-66
2023/04/11 12:23:41;;;;;;;;;;;17.80;55.90;;;;;;10421644;28;88687;-66
2023/04/11 12:28:42;;;;;;;;;;;17.80;55.90;;;;;;10423025;28;90006;-66
2023/04/11 12:33:44;;;;;;;;;;;17.80;55.90;;;;;;10424292;28;89041;-67
2023/04/11 12:38:46;;;;;;;;;;;17.80;56.00;;;;;;10421631;28;90124;-67
2023/04/11 12:43:48;;;;;;;;;;;17.80;55.90;;;;;;10422022;28;89831;-67
2023/04/11 12:48:50;;;;;;;;;;;17.80;55.90;;;;;;10421645;28;90126;-66
2023/04/11 12:53:52;;;;;;;;;;;17.80;55.90;;;;;;10421787;28;90186;-66
2023/04/11 12:58:54;;;;;;;;;;;17.70;55.90;;;;;;10422593;28;89086;-67
2023/04/11 13:03:57;;;;;;;;;;;17.70;55.90;;;;;;10422132;28;88997;-66
2023/04/11 13:08:59;;;;;;;;;;;17.80;55.80;;;;;;10422104;28;90115;-66
2023/04/11 13:14:01;;;;;;;;;;;17.80;55.90;;;;;;10419870;28;89019;-66
2023/04/11 13:19:02;;;;;;;;;;;17.80;55.70;;;;;;10421004;28;88257;-66
2023/04/11 13:24:05;;;;;;;;;;;17.80;55.70;;;;;;10422552;28;88967;-66
2023/04/11 13:29:07;;;;;;;;;;;17.80;56.40;;;;;;10422039;28;90060;-66
2023/04/11 13:34:09;;;;;;;;;;;17.80;55.70;;;;;;10421099;28;88906;-67
2023/04/11 13:39:12;;;;;;;;;;;17.80;55.50;;;;;;10420247;28;90379;-67
2023/04/11 13:44:14;;;;;;;;;;;17.80;55.40;;;;;;10420748;28;90205;-66
2023/04/11 13:49:15;;;;;;;;;;;17.80;55.40;;;;;;10419977;28;89275;-67
2023/04/11 13:54:17;;;;;;;;;;;17.80;55.20;;;;;;10419605;28;88670;-66
2023/04/11 13:59:19;;;;;;;;;;;17.80;55.20;;;;;;10419236;28;88192;-67
2023/04/11 14:04:21;;;;;;;;;;;17.80;55.10;;;;;;10419997;28;88655;-66
2023/04/11 14:09:23;;;;;;;;;;;17.80;55.00;;;;;;10420726;28;88501;-66
2023/04/11 14:14:25;;;;;;;;;;;17.80;54.90;;;;;;10420808;28;90635;-66
2023/04/11 14:19:27;;;;;;;;;;;17.80;55.00;;;;;;10400886;28;88861;-67
2023/04/11 14:24:29;;;;;;;;;;;17.80;54.80;;;;;;10418195;27;89106;-66
2023/04/11 14:29:33;;;;;;;;;;;17.80;54.80;;;;;;10419579;28;90650;-66
2023/04/11 14:34:35;;;;;;;;;;;17.80;54.80;;;;;;10419859;28;90325;-66
2023/04/11 14:39:38;;;;;;;;;;;17.80;54.80;;;;;;10418579;28;89835;-67
2023/04/11 14:44:40;;;;;;;;;;;17.80;54.70;;;;;;10418150;28;89117;-66
2023/04/11 14:49:42;;;;;;;;;;;17.90;54.70;;;;;;10417753;28;89082;-66
2023/04/11 14:54:44;;;;;;;;;;;17.90;54.70;;;;;;10419161;28;90202;-66
2023/04/11 14:59:47;;;;;;;;;;;17.80;54.60;;;;;;10417214;28;89871;-67
2023/04/11 15:04:48;;;;;;;;;;;17.80;54.50;;;;;;10419084;28;88203;-67
2023/04/11 15:09:51;;;;;;;;;;;17.80;54.50;;;;;;10400285;28;89791;-65
2023/04/11 15:14:53;;;;;;;;;;;17.80;54.50;;;;;;10398943;28;89884;-66
2023/04/11 15:19:55;;;;;;;;;;;17.80;54.40;;;;;;10417442;28;89068;-66
2023/04/11 15:24:57;;;;;;;;;;;17.90;54.50;;;;;;10417549;28;89097;-67
2023/04/11 15:30:02;;;;;;;;;;;17.90;54.50;;;;;;10416792;28;90127;-67
2023/04/11 15:35:05;;;;;;;;;;;17.90;54.50;;;;;;10417534;28;89016;-66
2023/04/11 15:40:10;;;;;;;;;;;18.00;54.60;;;;;;10405698;28;89389;-66
2023/04/11 15:45:12;;;;;;;;;;;18.00;54.60;;;;;;10424048;28;89052;-66
2023/04/11 15:50:16;;;;;;;;;;;18.00;54.40;;;;;;10423662;28;90038;-66
2023/04/11 15:55:18;;;;;;;;;;;18.10;54.60;;;;;;10425150;28;88285;-66
2023/04/11 16:00:21;;;;;;;;;;;18.10;54.50;;;;;;10423459;28;88902;-68
2023/04/11 16:05:23;;;;;;;;;;;18.10;54.50;;;;;;10406113;28;88820;-67
2023/04/11 16:10:25;;;;;;;;;;;18.10;54.50;;;;;;10404712;28;89761;-66
2023/04/11 16:15:27;;;;;;;;;;;18.20;54.50;;;;;;10423723;28;90041;-66
2023/04/11 16:20:31;;;;;;;;;;;18.20;54.40;;;;;;10405358;28;90095;-67
2023/04/11 16:25:33;;;;;;;;;;;18.30;54.40;;;;;;10423364;28;88065;-66
2023/04/11 16:30:34;;;;;;;;;;;18.30;54.40;;;;;;10422862;28;89131;-66
2023/04/11 16:35:36;;;;;;;;;;;18.30;54.20;;;;;;10423406;28;89635;-66
2023/04/11 16:40:38;;;;;;;;;;;18.30;54.10;;;;;;10422211;28;89170;-66
2023/04/11 16:45:40;;;;;;;;;;;18.40;54.00;;;;;;10423191;28;88450;-66
2023/04/11 16:50:42;;;;;;;;;;;18.40;53.90;;;;;;10422334;28;89227;-66
2023/04/11 16:55:43;;;;;;;;;;;18.40;53.80;;;;;;10422663;28;89155;-67
2023/04/11 17:00:46;;;;;;;;;;;18.30;53.70;;;;;;10421586;28;90763;-66
2023/04/11 17:05:48;;;;;;;;;;;18.30;53.70;;;;;;10421190;28;88927;-66
2023/04/11 17:10:50;;;;;;;;;;;18.30;53.50;;;;;;10422402;28;90358;-66
2023/04/11 17:15:53;;;;;;;;;;;18.20;53.40;;;;;;10403638;28;89142;-66
2023/04/11 17:20:55;;;;;;;;;;;18.20;53.40;;;;;;10421417;28;90083;-66
2023/04/11 17:25:57;;;;;;;;;;;18.10;53.30;;;;;;10420412;28;88969;-66
2023/04/11 17:30:59;;;;;;;;;;;18.10;53.30;;;;;;10421070;28;90155;-66
2023/04/11 17:36:01;;;;;;;;;;;18.10;53.40;;;;;;10421443;28;88420;-67
2023/04/11 17:41:03;;;;;;;;;;;18.00;53.30;;;;;;10420943;28;88050;-67
2023/04/11 17:46:15;;;;;;;;;;;18.00;53.50;;;;;;10421115;28;90171;-67
2023/04/11 17:51:17;;;;;;;;;;;18.00;53.30;;;;;;10418342;28;90331;-67
2023/04/11 17:56:19;;;;;;;;;;;17.90;53.10;;;;;;10420744;28;88172;-66
2023/04/11 18:01:22;;;;;;;;;;;17.90;53.20;;;;;;10418561;27;89051;-67
2023/04/11 18:06:26;;;;;;;;;;;17.80;53.50;;;;;;10420103;28;89005;-67
2023/04/11 18:11:28;;;;;;;;;;;17.80;53.10;;;;;;10419072;28;88810;-67
2023/04/11 18:16:30;;;;;;;;;;;17.80;53.10;;;;;;10420286;28;89957;-67
2023/04/11 18:21:32;;;;;;;;;;;17.80;53.20;;;;;;10418896;28;90031;-67
2023/04/11 18:26:34;;;;;;;;;;;17.90;53.10;;;;;;10419480;28;87842;-67
2023/04/11 18:31:36;;;;;;;;;;;17.90;52.90;;;;;;10401379;28;89016;-67
2023/04/11 18:36:38;;;;;;;;;;;17.90;52.90;;;;;;10419342;28;90201;-67
2023/04/11 18:41:40;;;;;;;;;;;17.80;52.90;;;;;;10417238;28;89605;-67
2023/04/11 18:46:43;;;;;;;;;;;17.80;52.80;;;;;;10418283;28;89865;-67
2023/04/11 18:51:45;;;;;;;;;;;17.80;52.90;;;;;;10417893;28;89357;-67
2023/04/11 18:56:46;;;;;;;;;;;17.80;52.70;;;;;;10417677;28;88878;-68
2023/04/11 19:01:53;;;;;;;;;;;17.80;52.40;;;;;;10418206;28;89017;-68
2023/04/11 19:06:55;;;;;;;;;;;17.80;52.30;;;;;;10418227;28;88797;-67
2023/04/11 19:11:57;;;;;;;;;;;17.70;52.20;;;;;;10415702;28;88175;-67
2023/04/11 19:16:59;;;;;;;;;;;17.70;52.40;;;;;;10420117;28;88194;-67
2023/04/11 19:22:01;;;;;;;;;;;17.70;52.50;;;;;;10418580;28;89281;-67
2023/04/11 19:27:06;;;;;;;;;;;17.70;52.50;;;;;;10417589;28;109965;-67
2023/04/11 19:32:08;;;;;;;;;;;17.70;52.90;;;;;;10416469;28;89603;-67
2023/04/11 19:37:12;;;;;;;;;;;17.70;52.50;;;;;;10419863;28;90297;-67
2023/04/11 19:42:15;;;;;;;;;;;17.70;52.40;;;;;;10419369;28;89066;-67
2023/04/11 19:47:18;;;;;;;;;;;17.80;52.50;;;;;;10417456;28;88160;-67
2023/04/11 19:52:19;;;;;;;;;;;17.80;52.40;;;;;;10417814;28;89405;-66
2023/04/11 19:57:22;;;;;;;;;;;17.80;52.50;;;;;;10418264;28;89054;-67
2023/04/11 20:02:25;;;;;;;;;;;17.80;52.50;;;;;;10417089;28;88830;-66
2023/04/11 20:07:27;;;;;;;;;;;17.70;52.40;;;;;;10417209;28;87766;-66
2023/04/11 20:12:28;;;;;;;;;;;17.70;52.50;;;;;;10416652;28;88379;-66
2023/04/11 20:17:30;;;;;;;;;;;17.70;52.50;;;;;;10397927;28;89897;-67
2023/04/11 20:22:32;;;;;;;;;;;17.70;52.40;;;;;;10415664;27;90151;-68
2023/04/11 20:27:34;;;;;;;;;;;17.70;52.70;;;;;;10422039;28;89103;-66
2023/04/11 20:32:36;;;;;;;;;;;17.60;52.80;;;;;;10424240;28;88528;-66
2023/04/11 20:37:38;;;;;;;;;;;17.60;52.80;;;;;;10423026;28;90200;-66
2023/04/11 20:42:41;;;;;;;;;;;17.60;53.20;;;;;;10422966;28;89956;-67
2023/04/11 20:47:45;;;;;;;;;;;17.60;53.40;;;;;;10422139;28;89516;-67
2023/04/11 20:52:50;;;;;;;;;;;17.60;53.40;;;;;;10422300;28;89357;-66
2023/04/11 20:57:52;;;;;;;;;;;17.60;53.30;;;;;;10405515;28;89059;-67
2023/04/11 21:02:54;;;;;;;;;;;17.60;53.40;;;;;;10422501;28;89098;-67
2023/04/11 21:07:57;;;;;;;;;;;17.60;53.40;;;;;;10421010;28;88340;-66
2023/04/11 21:12:58;;;;;;;;;;;17.60;53.40;;;;;;10421061;28;89620;-66
2023/04/11 21:18:00;;;;;;;;;;;17.60;53.40;;;;;;10421499;28;88804;-67
2023/04/11 21:23:02;;;;;;;;;;;17.60;53.50;;;;;;10403540;28;90195;-66
2023/04/11 21:28:03;;;;;;;;;;;17.60;53.50;;;;;;10403667;28;89225;-66
2023/04/11 21:33:05;;;;;;;;;;;17.60;53.60;;;;;;10420025;28;90672;-66
2023/04/11 21:38:07;;;;;;;;;;;17.60;53.60;;;;;;10420447;27;89930;-67
2023/04/11 21:43:09;;;;;;;;;;;17.50;53.60;;;;;;10421125;28;89429;-67
2023/04/11 21:48:10;;;;;;;;;;;17.50;53.70;;;;;;10421266;28;89254;-66
2023/04/11 21:53:12;;;;;;;;;;;17.50;53.70;;;;;;10419442;28;90090;-67
2023/04/11 21:58:14;;;;;;;;;;;17.50;53.80;;;;;;10418935;28;90531;-65
2023/04/11 22:03:29;;;;;;;;;;;17.50;53.90;;;;;;10419549;28;90847;-67
2023/04/11 22:08:31;;;;;;;;;;;17.50;53.90;;;;;;10401548;28;90029;-66
2023/04/11 22:13:33;;;;;;;;;;;17.50;54.00;;;;;;10418400;28;89060;-66
2023/04/11 22:18:45;;;;;;;;;;;17.50;54.10;;;;;;10419718;28;89936;-66
2023/04/11 22:23:48;;;;;;;;;;;17.50;54.00;;;;;;10419195;28;89142;-66
2023/04/11 22:28:50;;;;;;;;;;;17.50;54.10;;;;;;10419627;28;90087;-66
2023/04/11 22:33:52;;;;;;;;;;;17.50;54.10;;;;;;10419632;28;88026;-66
2023/04/11 22:38:54;;;;;;;;;;;17.50;54.10;;;;;;10420294;28;88299;-66
2023/04/11 22:43:55;;;;;;;;;;;17.40;54.10;;;;;;10418335;28;88099;-66
2023/04/11 22:48:57;;;;;;;;;;;17.40;54.20;;;;;;10417851;27;89007;-66
2023/04/11 22:54:01;;;;;;;;;;;17.40;54.30;;;;;;10418516;28;90702;-66
2023/04/11 22:59:02;;;;;;;;;;;17.40;54.40;;;;;;10419244;28;88027;-66
2023/04/11 23:04:04;;;;;;;;;;;17.40;54.40;;;;;;10418430;28;88412;-67
2023/04/11 23:09:06;;;;;;;;;;;17.40;54.50;;;;;;10418820;28;89937;-66
2023/04/11 23:14:08;;;;;;;;;;;17.40;54.50;;;;;;10418077;28;89137;-67
2023/04/11 23:19:09;;;;;;;;;;;17.40;54.50;;;;;;10417987;28;88823;-66
2023/04/11 23:24:11;;;;;;;;;;;17.40;54.50;;;;;;10417835;28;90114;-67
2023/04/11 23:29:13;;;;;;;;;;;17.40;54.60;;;;;;10418989;28;88269;-66
2023/04/11 23:34:15;;;;;;;;;;;17.40;54.60;;;;;;10399145;28;89443;-66
2023/04/11 23:39:16;;;;;;;;;;;17.40;54.60;;;;;;10418025;28;88453;-66
2023/04/11 23:44:18;;;;;;;;;;;17.40;54.70;;;;;;10416610;28;90003;-66
2023/04/11 23:49:20;;;;;;;;;;;17.40;54.70;;;;;;10416598;28;89923;-67
2023/04/11 23:54:22;;;;;;;;;;;17.40;54.70;;;;;;10417081;28;88860;-66
2023/04/11 23:59:23;;;;;;;;;;;17.40;54.70;;;;;;10421830;27;89908;-66
